Time;durP1;ratioP1;P1;durP2;ratioP2;P2;SDS_P1;SDS_P2;PMS_P1;PMS_P2;Temp;Humidity;BMP_temperature;BMP_pressure;BME280_temperature;BME280_humidity;BME280_pressure;Samples;Min_cycle;Max_cycle;Signal;HPM_P1;HPM_P2
2022/06/29 00:00:40;;;;;;;1.88;1.50;;;;;;;28.03;39.54;99423.06;4206023;28;20221;-69
2022/06/29 00:02:46;;;;;;;2.35;1.77;;;;;;;28.09;39.03;99415.63;4206624;28;20804;-69
2022/06/29 00:05:01;;;;;;;3.67;1.60;;;;;;;28.41;38.73;99414.34;4206134;28;20241;-69
2022/06/29 00:07:09;;;;;;;1.75;1.52;;;;;;;28.44;38.43;99416.50;4203754;28;20250;-69
2022/06/29 00:09:11;;;;;;;4.55;1.65;;;;;;;28.20;38.57;99425.44;4190827;28;20203;-69
2022/06/29 00:11:19;;;;;;;3.20;1.60;;;;;;;28.21;38.76;99424.34;4193733;28;20252;-68
2022/06/29 00:13:21;;;;;;;2.00;1.70;;;;;;;28.28;38.59;99416.63;4194835;28;20211;-69
2022/06/29 00:15:22;;;;;;;3.40;1.63;;;;;;;28.43;38.32;99421.16;4204663;28;20253;-70
2022/06/29 00:17:32;;;;;;;3.67;1.75;;;;;;;27.67;39.00;99415.09;4211722;28;20346;-69
2022/06/29 00:19:34;;;;;;;5.72;1.90;;;;;;;27.70;39.56;99413.72;4211348;28;20215;-69
2022/06/29 00:21:36;;;;;;;2.63;1.48;;;;;;;28.02;38.77;99401.50;4200361;28;20246;-69
2022/06/29 00:23:45;;;;;;;2.80;1.40;;;;;;;28.08;38.95;99397.63;4194910;28;20632;-69
2022/06/29 00:25:53;;;;;;;2.35;1.40;;;;;;;27.85;39.01;99399.94;4194403;28;20265;-69
2022/06/29 00:27:55;;;;;;;2.72;1.60;;;;;;;28.15;38.84;99389.94;4194250;28;20818;-69
2022/06/29 00:29:57;;;;;;;3.15;1.90;;;;;;;28.03;38.93;99403.94;4202628;28;20218;-69
2022/06/29 00:32:06;;;;;;;4.53;1.92;;;;;;;28.13;38.54;99387.47;4210767;28;20668;-69
2022/06/29 00:34:07;;;;;;;2.38;1.50;;;;;;;27.77;39.09;99395.91;4210247;28;20199;-69
2022/06/29 00:36:09;;;;;;;1.65;1.40;;;;;;;26.93;39.58;99392.13;4210231;28;20283;-69
2022/06/29 00:38:18;;;;;;;2.30;1.33;;;;;;;27.87;38.81;99372.34;4211408;28;20248;-69
2022/06/29 00:40:26;;;;;;;1.73;1.23;;;;;;;27.99;38.58;99381.03;4209368;28;20275;-69
2022/06/29 00:42:29;;;;;;;2.60;1.65;;;;;;;28.03;38.18;99379.34;4210654;28;20211;-69
2022/06/29 00:44:31;;;;;;;2.47;1.50;;;;;;;27.56;39.06;99384.25;4209193;28;20367;-69
2022/06/29 00:46:46;;;;;;;3.95;1.90;;;;;;;27.76;38.91;99377.06;4193609;28;20231;-69
2022/06/29 00:48:47;;;;;;;2.67;1.70;;;;;;;27.36;39.29;99384.34;4184175;28;20210;-69
2022/06/29 00:50:50;;;;;;;2.30;1.70;;;;;;;27.23;38.93;99386.59;4210528;28;20207;-68
2022/06/29 00:53:03;;;;;;;1.98;1.50;;;;;;;27.70;38.94;99378.19;4209197;28;20285;-68
2022/06/29 00:55:09;;;;;;;3.90;1.50;;;;;;;27.70;38.48;99379.03;4209991;28;20227;-68
2022/06/29 00:57:17;;;;;;;2.88;1.50;;;;;;;27.45;38.84;99371.78;4198728;28;20607;-68
2022/06/29 00:59:27;;;;;;;3.45;1.67;;;;;;;27.55;38.76;99363.53;4193063;28;20215;-69
2022/06/29 01:01:30;;;;;;;2.42;1.70;;;;;;;27.42;38.99;99372.31;4201388;28;20273;-68
2022/06/29 01:03:32;;;;;;;2.22;1.40;;;;;;;27.33;39.05;99372.09;4190169;28;20211;-68
2022/06/29 01:05:47;;;;;;;3.00;1.40;;;;;;;27.41;38.61;99370.69;4191270;28;20321;-68
2022/06/29 01:07:56;;;;;;;3.70;1.60;;;;;;;27.09;39.30;99363.72;4207698;28;20222;-69
2022/06/29 01:09:58;;;;;;;2.75;1.60;;;;;;;27.17;39.92;99365.88;4210525;28;20241;-69
2022/06/29 01:12:07;;;;;;;3.80;1.80;;;;;;;26.97;39.94;99358.56;4210013;28;20219;-69
2022/06/29 01:14:14;;;;;;;4.70;1.75;;;;;;;26.69;40.28;99352.63;4209906;28;20633;-69
2022/06/29 01:16:15;;;;;;;4.47;1.67;;;;;;;27.11;39.90;99349.81;4209504;28;20251;-69
2022/06/29 01:18:23;;;;;;;2.00;1.55;;;;;;;26.57;40.91;99352.13;4209541;28;20232;-68
2022/06/29 01:20:25;;;;;;;2.42;1.60;;;;;;;26.58;41.06;99350.22;4209109;28;20715;-68
2022/06/29 01:22:27;;;;;;;2.58;1.50;;;;;;;26.49;41.16;99348.00;4194013;28;20316;-69
2022/06/29 01:24:36;;;;;;;2.05;1.60;;;;;;;26.25;41.54;99347.78;4209407;28;20238;-68
2022/06/29 01:26:38;;;;;;;2.22;1.75;;;;;;;26.85;41.01;99337.03;4209461;28;20259;-68
2022/06/29 01:28:46;;;;;;;1.73;1.58;;;;;;;26.21;42.62;99343.94;4210031;28;20203;-68
2022/06/29 01:30:54;;;;;;;3.15;1.50;;;;;;;26.09;42.08;99340.69;4188844;28;20212;-68
2022/06/29 01:32:56;;;;;;;1.95;1.45;;;;;;;26.04;41.92;99337.97;4192753;28;20269;-68
2022/06/29 01:34:58;;;;;;;3.55;1.50;;;;;;;26.37;42.16;99341.19;4192275;28;20237;-69
2022/06/29 01:37:07;;;;;;;2.60;1.35;;;;;;;26.31;41.75;99340.41;4193819;28;20683;-68
2022/06/29 01:39:09;;;;;;;2.20;1.35;;;;;;;26.88;40.44;99335.69;4206679;28;20663;-69
2022/06/29 01:41:15;;;;;;;1.75;1.50;;;;;;;26.43;41.37;99340.09;4210261;28;20264;-69
2022/06/29 01:43:23;;;;;;;1.95;1.50;;;;;;;26.54;41.14;99339.03;4209201;28;20210;-69
2022/06/29 01:45:25;;;;;;;2.80;1.40;;;;;;;27.02;40.24;99328.53;4207858;28;20236;-68
2022/06/29 01:47:27;;;;;;;2.45;1.50;;;;;;;26.83;41.04;99339.22;4209991;28;20293;-68
2022/06/29 01:49:35;;;;;;;2.45;1.50;;;;;;;27.25;39.87;99332.56;4209608;28;20211;-68
2022/06/29 01:51:37;;;;;;;2.10;1.50;;;;;;;26.85;41.43;99337.03;4190791;28;20688;-68
2022/06/29 01:53:39;;;;;;;2.55;1.45;;;;;;;26.82;41.83;99332.13;4209567;28;20268;-68
2022/06/29 01:55:47;;;;;;;2.88;1.63;;;;;;;26.72;41.98;99334.88;4207762;28;20227;-68
2022/06/29 01:57:49;;;;;;;1.60;1.50;;;;;;;26.84;41.82;99323.69;4192427;28;20200;-68
2022/06/29 01:59:50;;;;;;;4.18;1.77;;;;;;;26.77;42.77;99326.69;4191664;28;20269;-68
2022/06/29 02:01:58;;;;;;;3.42;1.55;;;;;;;26.90;42.28;99317.13;4208635;28;20202;-68
2022/06/29 02:04:07;;;;;;;1.80;1.45;;;;;;;26.76;41.48;99332.44;4207003;28;20207;-68
2022/06/29 03:12:06;;;;;;;4.85;1.65;;;;;;;27.21;42.11;99328.75;4159188;28;20229;-68
2022/06/29 03:14:20;;;;;;;2.42;1.75;;;;;;;27.03;42.54;99326.63;4168629;28;20248;-68
2022/06/29 03:16:22;;;;;;;3.00;1.70;;;;;;;27.02;41.67;99330.44;4174167;28;20203;-68
2022/06/29 03:18:24;;;;;;;2.95;1.80;;;;;;;26.79;41.67;99337.31;4176231;28;20204;-68
2022/06/29 03:20:32;;;;;;;4.70;2.00;;;;;;;27.22;40.29;99329.56;4175102;28;20219;-68
2022/06/29 03:22:34;;;;;;;4.18;1.98;;;;;;;26.87;40.89;99334.84;4176016;28;20238;-69
2022/06/29 03:24:36;;;;;;;3.30;1.50;;;;;;;27.25;40.31;99335.28;4174883;28;20289;-69
2022/06/29 03:26:45;;;;;;;3.13;1.80;;;;;;;26.75;40.82;99337.06;4175609;28;20204;-69
2022/06/29 03:28:48;;;;;;;5.68;1.80;;;;;;;26.76;40.57;99346.06;4176091;28;20204;-69
2022/06/29 03:30:50;;;;;;;2.65;2.00;;;;;;;26.91;40.22;99335.13;4164733;28;20213;-69
2022/06/29 03:32:57;;;;;;;3.38;1.90;;;;;;;26.68;40.94;99337.34;4158236;28;20258;-69
2022/06/29 03:34:59;;;;;;;2.20;2.00;;;;;;;25.86;41.64;99347.44;4162451;28;20223;-71
2022/06/29 03:37:01;;;;;;;3.50;2.03;;;;;;;26.82;40.36;99337.59;4175482;28;20880;-69
2022/06/29 03:39:10;;;;;;;1.50;1.40;;;;;;;26.86;40.45;99335.97;4171808;28;20261;-69
2022/06/29 03:41:11;;;;;;;5.40;2.03;;;;;;;26.55;40.40;99342.56;4172326;28;20212;-69
2022/06/29 03:43:13;;;;;;;1.85;1.60;;;;;;;26.88;40.19;99341.94;4172164;28;20212;-69
2022/06/29 03:45:22;;;;;;;1.70;1.60;;;;;;;26.42;41.33;99352.94;4167018;28;20293;-69
2022/06/29 03:47:25;;;;;;;2.15;1.90;;;;;;;26.31;41.22;99348.56;4173498;28;20257;-69
2022/06/29 03:49:26;;;;;;;3.58;1.77;;;;;;;27.02;40.30;99331.25;4169532;28;20923;-69
2022/06/29 03:51:34;;;;;;;4.47;2.13;;;;;;;27.16;39.68;99341.59;4166256;28;20931;-68
2022/06/29 03:53:36;;;;;;;3.17;1.90;;;;;;;26.25;41.46;99350.50;4162997;28;20212;-69
2022/06/29 03:55:38;;;;;;;2.63;1.80;;;;;;;26.57;40.92;99335.78;4160166;28;20298;-69
2022/06/29 03:57:46;;;;;;;3.30;1.85;;;;;;;26.97;39.87;99323.09;4161199;28;20645;-68
2022/06/29 03:59:48;;;;;;;2.65;1.65;;;;;;;27.07;39.78;99333.97;4170279;28;20211;-69
2022/06/29 04:01:50;;;;;;;2.70;1.70;;;;;;;27.00;39.94;99341.63;4162330;28;20209;-69
2022/06/29 04:03:59;;;;;;;2.05;1.80;;;;;;;26.19;40.59;99345.31;4165111;28;20219;-69
2022/06/29 04:06:00;;;;;;;2.42;1.80;;;;;;;26.30;41.22;99333.31;4177902;28;20291;-69
2022/06/29 04:08:02;;;;;;;3.22;1.90;;;;;;;26.76;40.56;99335.16;4162245;28;20278;-68
2022/06/29 04:10:24;;;;;;;5.30;1.80;;;;;;;26.47;41.28;99335.72;4165265;28;20250;-69
2022/06/29 04:12:35;;;;;;;2.83;1.95;;;;;;;26.56;40.18;99336.03;4194799;28;20211;-69
2022/06/29 04:14:36;;;;;;;4.70;1.83;;;;;;;26.93;40.22;99323.94;4199223;28;20714;-70
2022/06/29 04:16:38;;;;;;;4.30;1.60;;;;;;;26.49;40.24;99341.75;4194570;28;20216;-70
2022/06/29 04:18:47;;;;;;;3.92;1.73;;;;;;;26.75;40.47;99326.16;4196996;28;20268;-68
2022/06/29 04:21:07;;;;;;;3.60;2.03;;;;;;;26.83;40.30;99333.78;4211532;28;20253;-68
2022/06/29 04:23:08;;;;;;;5.05;2.50;;;;;;;26.35;40.93;99322.38;4211301;28;20218;-68
2022/06/29 04:25:17;;;;;;;5.03;1.98;;;;;;;26.77;40.12;99323.16;4211977;28;20226;-67
2022/06/29 04:27:18;;;;;;;6.28;2.08;;;;;;;26.87;40.06;99331.31;4211201;28;20215;-68
2022/06/29 04:29:20;;;;;;;2.20;1.92;;;;;;;27.12;40.23;99324.97;4210083;28;20210;-67
2022/06/29 04:31:28;;;;;;;2.50;1.92;;;;;;;27.36;40.09;99330.56;4178464;28;20249;-68
2022/06/29 04:33:30;;;;;;;2.13;1.90;;;;;;;27.40;39.83;99326.19;4194480;28;20203;-68
2022/06/29 04:35:32;;;;;;;3.55;2.00;;;;;;;27.17;39.72;99327.66;4193440;28;20780;-68
2022/06/29 04:37:40;;;;;;;2.53;1.63;;;;;;;27.16;40.88;99331.50;4194519;28;20211;-68
2022/06/29 04:39:42;;;;;;;2.83;2.03;;;;;;;26.96;40.94;99331.53;4194795;28;20215;-68
2022/06/29 04:41:44;;;;;;;3.05;2.30;;;;;;;26.58;40.98;99322.94;4193796;28;20269;-68
2022/06/29 04:43:52;;;;;;;2.83;1.95;;;;;;;26.49;41.58;99319.94;4194792;28;20265;-67
2022/06/29 04:48:28;;;;;;;2.40;1.63;;;;;;;26.33;41.59;99324.56;4155380;28;20233;-68
2022/06/29 04:50:36;;;;;;;2.30;1.70;;;;;;;26.39;41.47;99318.03;4202828;28;20213;-67
2022/06/29 04:52:37;;;;;;;2.63;1.65;;;;;;;26.87;40.15;99321.19;4209762;28;20691;-68
2022/06/29 04:54:40;;;;;;;2.40;2.10;;;;;;;26.35;41.75;99333.28;4210128;28;20234;-68
2022/06/29 04:56:49;;;;;;;2.40;1.80;;;;;;;26.08;41.92;99330.84;4185539;28;20266;-68
2022/06/29 04:58:53;;;;;;;2.95;1.90;;;;;;;27.03;39.86;99321.97;4193506;28;20607;-68
2022/06/29 05:00:55;;;;;;;5.95;1.80;;;;;;;26.52;40.82;99336.59;4194186;28;20688;-68
2022/06/29 05:03:03;;;;;;;2.63;1.85;;;;;;;26.85;39.66;99331.59;4194004;28;20207;-68
2022/06/29 05:05:05;;;;;;;1.85;1.60;;;;;;;27.08;39.70;99330.16;4192400;28;20222;-68
2022/06/29 05:07:06;;;;;;;3.58;2.20;;;;;;;26.88;40.06;99344.66;4207734;28;20199;-68
2022/06/29 05:09:22;;;;;;;2.83;1.65;;;;;;;26.60;40.81;99343.38;4211745;28;20242;-67
2022/06/29 05:11:37;;;;;;;1.60;1.50;;;;;;;26.85;41.40;99322.59;4208845;28;20299;-68
2022/06/29 05:13:46;;;;;;;3.35;1.92;;;;;;;26.97;41.24;99328.53;4210708;28;20636;-68
2022/06/29 05:15:48;;;;;;;2.55;1.77;;;;;;;26.63;41.75;99331.91;4199273;28;20853;-68
2022/06/29 05:17:49;;;;;;;2.90;1.90;;;;;;;27.02;40.46;99330.44;4193812;28;20234;-68
2022/06/29 05:19:57;;;;;;;1.73;1.63;;;;;;;26.69;40.72;99343.66;4194633;28;20253;-68
2022/06/29 05:21:59;;;;;;;3.50;1.90;;;;;;;26.26;41.24;99341.22;4198842;28;20215;-70
2022/06/29 05:24:01;;;;;;;3.08;1.85;;;;;;;26.79;41.32;99326.41;4193368;28;20722;-68
2022/06/29 05:26:12;;;;;;;2.65;1.60;;;;;;;27.03;41.02;99329.34;4193028;28;20203;-70
2022/06/29 05:28:13;;;;;;;2.80;2.00;;;;;;;26.88;40.65;99335.69;4189745;28;20223;-68
2022/06/29 05:30:15;;;;;;;4.00;1.85;;;;;;;26.70;41.47;99329.72;4203439;28;20203;-68
2022/06/29 05:32:24;;;;;;;4.85;1.70;;;;;;;27.02;41.04;99320.34;4194472;28;20218;-68
2022/06/29 05:34:25;;;;;;;2.58;1.60;;;;;;;27.04;41.19;99329.06;4193192;28;20239;-69
2022/06/29 05:36:27;;;;;;;3.85;1.70;;;;;;;26.79;41.58;99332.72;4192483;28;20456;-70
2022/06/29 05:38:37;;;;;;;3.75;2.08;;;;;;;26.82;41.92;99329.41;4194589;28;20653;-68
2022/06/29 05:40:39;;;;;;;3.33;1.80;;;;;;;26.91;41.82;99318.75;4193363;28;20211;-70
2022/06/29 05:42:41;;;;;;;2.30;1.88;;;;;;;27.29;40.75;99326.53;4192587;28;20211;-69
2022/06/29 05:44:49;;;;;;;3.28;2.10;;;;;;;27.29;40.77;99329.25;4197256;28;20230;-69
2022/06/29 05:46:51;;;;;;;3.35;2.03;;;;;;;27.23;40.30;99333.94;4194235;28;21022;-69
2022/06/29 05:48:53;;;;;;;1.98;1.75;;;;;;;27.42;40.90;99334.09;4201343;28;20222;-69
2022/06/29 05:51:02;;;;;;;3.85;1.90;;;;;;;24.85;43.90;99320.44;4209432;28;20479;-70
2022/06/29 05:53:03;;;;;;;2.92;1.83;;;;;;;26.80;41.03;99325.34;4210485;28;20247;-70
2022/06/29 05:55:05;;;;;;;6.60;2.00;;;;;;;25.95;41.84;99335.78;4208003;28;20279;-70
2022/06/29 05:57:14;;;;;;;2.97;1.60;;;;;;;26.06;42.18;99330.31;4198245;28;20953;-69
2022/06/29 05:59:15;;;;;;;2.63;1.90;;;;;;;23.70;45.38;99336.09;4195652;28;20203;-69
2022/06/29 06:01:17;;;;;;;4.13;2.00;;;;;;;24.40;44.82;99300.06;4194619;28;20204;-70
2022/06/29 06:03:25;;;;;;;2.58;1.80;;;;;;;26.26;42.10;99324.06;4193089;28;20737;-69
2022/06/29 06:05:26;;;;;;;3.90;2.03;;;;;;;26.57;42.46;99310.41;4192609;28;20258;-70
2022/06/29 06:07:28;;;;;;;4.38;2.28;;;;;;;26.50;43.10;99308.78;4199976;28;20260;-70
2022/06/29 06:09:36;;;;;;;2.63;2.10;;;;;;;27.42;41.39;99309.53;4203579;28;20210;-69
2022/06/29 06:11:43;;;;;;;5.45;2.50;;;;;;;25.73;43.51;99330.53;4202919;28;20278;-69
2022/06/29 06:13:51;;;;;;;3.25;2.35;;;;;;;25.82;44.11;99314.47;4202180;28;20211;-69
2022/06/29 06:15:59;;;;;;;3.95;1.85;;;;;;;26.92;42.26;99309.47;4203334;28;20263;-68
2022/06/29 06:18:21;;;;;;;4.18;2.10;;;;;;;27.12;42.36;99313.25;4202955;28;20215;-69
2022/06/29 06:20:22;;;;;;;2.75;2.15;;;;;;;24.80;45.72;99325.84;4206006;28;20559;-69
2022/06/29 06:22:31;;;;;;;4.25;2.13;;;;;;;26.44;43.27;99311.78;4207395;28;20203;-69
2022/06/29 06:24:35;;;;;;;6.55;2.63;;;;;;;27.54;41.65;99309.19;4205227;28;20314;-69
2022/06/29 06:26:37;;;;;;;5.95;2.72;;;;;;;26.94;43.76;99312.72;4208861;28;20773;-70
2022/06/29 06:28:46;;;;;;;4.00;2.50;;;;;;;26.37;44.28;99319.41;4209994;28;20249;-69
2022/06/29 06:30:49;;;;;;;3.20;2.00;;;;;;;27.28;43.63;99303.91;4198278;28;20211;-69
2022/06/29 06:32:51;;;;;;;3.60;2.67;;;;;;;26.59;45.32;99317.22;4192015;28;20211;-70
2022/06/29 06:35:00;;;;;;;2.75;2.50;;;;;;;26.08;47.22;99304.47;4191180;28;20239;-69
2022/06/29 06:37:01;;;;;;;8.55;2.60;;;;;;;26.45;47.70;99303.28;4193381;28;20348;-69
2022/06/29 06:39:03;;;;;;;4.45;2.55;;;;;;;26.65;47.09;99293.47;4192942;28;20818;-69
2022/06/29 06:41:27;;;;;;;5.63;2.70;;;;;;;27.66;45.77;99301.47;4207124;28;20275;-70
2022/06/29 06:43:28;;;;;;;4.82;2.83;;;;;;;26.83;47.37;99311.16;4208950;28;20210;-70
2022/06/29 06:45:31;;;;;;;3.85;2.90;;;;;;;27.36;47.87;99319.66;4207690;28;20260;-70
2022/06/29 06:47:39;;;;;;;6.88;3.03;;;;;;;27.02;48.32;99308.63;4192354;28;20214;-69
2022/06/29 06:49:40;;;;;;;3.67;2.88;;;;;;;26.82;49.29;99296.69;4208742;28;20262;-70
2022/06/29 06:51:42;;;;;;;4.55;2.58;;;;;;;27.78;46.52;99299.19;4208139;28;20659;-70
2022/06/29 06:53:51;;;;;;;3.42;2.78;;;;;;;27.75;47.09;99321.66;4209094;28;20228;-70
2022/06/29 06:55:52;;;;;;;7.65;2.72;;;;;;;26.92;47.83;99346.84;4207181;28;20228;-70
2022/06/29 06:57:54;;;;;;;3.58;2.58;;;;;;;27.68;47.26;99328.50;4191650;28;20207;-70
2022/06/29 07:00:04;;;;;;;6.18;2.90;;;;;;;27.26;46.94;99342.38;4175420;28;20631;-70
2022/06/29 07:02:06;;;;;;;3.22;2.90;;;;;;;27.20;46.34;99350.88;4189832;28;20199;-70
2022/06/29 07:04:07;;;;;;;5.38;3.10;;;;;;;27.89;45.57;99342.84;4173437;28;20204;-70
2022/06/29 07:06:16;;;;;;;7.10;3.42;;;;;;;27.49;46.71;99364.63;4193546;28;20249;-69
2022/06/29 07:08:18;;;;;;;4.53;2.90;;;;;;;26.75;47.68;99347.97;4209496;28;20734;-70
2022/06/29 07:10:19;;;;;;;4.15;2.88;;;;;;;27.89;45.83;99338.19;4207053;28;20244;-69
2022/06/29 07:12:34;;;;;;;4.25;3.08;;;;;;;27.90;45.18;99350.75;4191034;28;20265;-69
2022/06/29 07:14:42;;;;;;;7.22;3.13;;;;;;;27.22;47.20;99354.94;4185688;28;20227;-69
2022/06/29 07:16:44;;;;;;;4.32;3.20;;;;;;;26.56;48.39;99339.56;4175125;28;20273;-69
2022/06/29 07:18:53;;;;;;;5.00;3.15;;;;;;;25.98;49.64;99339.84;4175116;28;20207;-70
2022/06/29 07:20:55;;;;;;;6.80;3.08;;;;;;;26.81;48.54;99341.44;4176216;28;20576;-69
2022/06/29 07:22:57;;;;;;;4.05;2.92;;;;;;;26.42;49.32;99339.31;4177859;28;20661;-69
2022/06/29 07:25:05;;;;;;;3.90;2.90;;;;;;;27.17;47.49;99335.06;4178343;28;20227;-69
2022/06/29 07:27:07;;;;;;;4.93;3.13;;;;;;;27.02;47.68;99333.16;4178871;28;20254;-70
2022/06/29 07:29:08;;;;;;;4.30;2.92;;;;;;;27.00;48.22;99344.34;4177035;28;20235;-69
2022/06/29 07:31:18;;;;;;;3.42;2.97;;;;;;;26.83;48.15;99344.69;4177067;28;20555;-69
2022/06/29 07:33:19;;;;;;;5.82;3.28;;;;;;;27.36;47.55;99330.56;4177662;28;20204;-69
2022/06/29 07:35:21;;;;;;;8.13;3.67;;;;;;;27.95;46.65;99345.25;4191343;28;20256;-70
2022/06/29 07:37:30;;;;;;;4.53;3.47;;;;;;;26.82;49.54;99340.31;4178665;28;20212;-69
2022/06/29 07:39:31;;;;;;;6.13;3.33;;;;;;;27.81;47.15;99339.59;4194599;28;20203;-70
2022/06/29 07:41:51;;;;;;;4.82;2.92;;;;;;;27.73;46.31;99348.41;4194686;28;20257;-69
2022/06/29 07:43:59;;;;;;;4.72;2.88;;;;;;;28.15;45.73;99357.94;4186934;28;20207;-70
2022/06/29 07:46:02;;;;;;;4.20;3.10;;;;;;;28.39;44.62;99367.34;4177571;28;20212;-69
2022/06/29 07:48:05;;;;;;;5.93;2.92;;;;;;;28.30;45.33;99370.69;4178714;28;20208;-69
2022/06/29 07:50:13;;;;;;;5.28;2.90;;;;;;;27.34;46.73;99372.91;4187401;28;20630;-70
2022/06/29 07:52:15;;;;;;;4.38;3.38;;;;;;;27.29;47.23;99364.75;4193136;28;20294;-69
2022/06/29 07:54:16;;;;;;;5.50;2.88;;;;;;;27.84;46.56;99360.09;4194069;28;20227;-69
2022/06/29 07:56:25;;;;;;;5.07;3.13;;;;;;;27.78;46.92;99372.94;4189158;28;20569;-69
2022/06/29 07:58:27;;;;;;;3.72;3.10;;;;;;;28.28;45.87;99375.63;4179229;28;20216;-69
2022/06/29 08:00:29;;;;;;;4.45;3.50;;;;;;;27.91;47.31;99373.44;4177856;28;20220;-69
2022/06/29 08:02:37;;;;;;;5.32;3.40;;;;;;;28.22;47.31;99378.69;4179054;28;20261;-70
2022/06/29 08:04:39;;;;;;;5.90;3.65;;;;;;;26.96;48.70;99372.47;4176725;28;20228;-69
2022/06/29 08:07:00;;;;;;;6.43;3.28;;;;;;;26.64;50.12;99360.00;4178177;28;20224;-71
2022/06/29 08:09:09;;;;;;;4.93;3.40;;;;;;;26.29;50.95;99359.75;4179339;28;20749;-69
2022/06/29 08:11:18;;;;;;;3.80;3.47;;;;;;;26.50;50.43;99333.31;4184018;28;20284;-69
2022/06/29 08:13:26;;;;;;;8.43;4.05;;;;;;;26.52;51.15;99355.66;4202873;28;20712;-69
2022/06/29 08:15:35;;;;;;;6.60;3.42;;;;;;;26.95;50.03;99340.84;4205137;28;20226;-70
2022/06/29 08:17:36;;;;;;;4.95;3.47;;;;;;;27.65;48.55;99354.47;4212295;28;20214;-70
2022/06/29 08:19:38;;;;;;;4.32;3.70;;;;;;;27.76;48.38;99353.31;4211880;28;20206;-71
2022/06/29 08:21:46;;;;;;;5.00;3.50;;;;;;;28.08;47.41;99367.56;4211194;28;20267;-70
2022/06/29 08:23:48;;;;;;;5.70;3.47;;;;;;;27.96;48.01;99371.47;4211107;28;20215;-70
2022/06/29 08:25:49;;;;;;;7.95;3.88;;;;;;;27.84;48.66;99383.84;4209612;28;20234;-69
2022/06/29 08:28:18;;;;;;;6.40;3.78;;;;;;;27.79;48.87;99371.88;4211804;28;20252;-69
2022/06/29 08:30:20;;;;;;;5.97;3.42;;;;;;;27.81;48.65;99379.78;4203952;28;20276;-69
2022/06/29 08:32:21;;;;;;;4.03;3.47;;;;;;;28.46;47.79;99360.44;4209886;28;20211;-70
2022/06/29 08:34:39;;;;;;;5.28;3.60;;;;;;;28.01;48.59;99389.75;4211752;28;20744;-70
2022/06/29 08:36:40;;;;;;;6.30;3.83;;;;;;;28.01;48.96;99387.03;4211562;28;20309;-70
2022/06/29 08:38:51;;;;;;;5.72;3.80;;;;;;;27.57;49.56;99394.09;4212065;28;20648;-70
2022/06/29 08:40:59;;;;;;;3.50;3.10;;;;;;;27.95;48.94;99377.22;4211203;28;20255;-69
2022/06/29 08:43:01;;;;;;;4.32;3.78;;;;;;;27.79;49.17;99382.78;4198029;28;20211;-69
2022/06/29 08:45:10;;;;;;;6.18;3.83;;;;;;;27.95;49.15;99375.28;4203496;28;20242;-69
2022/06/29 08:47:18;;;;;;;8.00;3.70;;;;;;;28.39;47.94;99376.34;4211920;28;20203;-69
2022/06/29 08:49:21;;;;;;;4.65;4.15;;;;;;;26.47;51.62;99374.72;4210564;28;20234;-68
2022/06/29 08:51:26;;;;;;;5.05;3.72;;;;;;;27.42;50.22;99370.41;4192172;28;20300;-69
2022/06/29 08:53:36;;;;;;;4.20;3.80;;;;;;;27.45;50.18;99377.22;4211510;28;20969;-68
2022/06/29 08:55:42;;;;;;;4.15;3.72;;;;;;;27.56;49.93;99383.44;4209942;28;20303;-68
2022/06/29 08:57:44;;;;;;;7.97;3.67;;;;;;;27.13;50.86;99381.19;4194875;28;20279;-68
2022/06/29 08:59:54;;;;;;;4.35;3.78;;;;;;;27.45;49.87;99383.50;4183066;28;20207;-68
2022/06/29 09:02:02;;;;;;;7.72;3.63;;;;;;;27.88;49.04;99380.28;4194244;28;20199;-69
2022/06/29 09:04:07;;;;;;;6.38;3.95;;;;;;;28.08;49.28;99386.69;4194100;28;20207;-69
2022/06/29 09:06:15;;;;;;;5.78;3.60;;;;;;;27.93;49.11;99393.88;4193695;28;20306;-69
2022/06/29 09:08:18;;;;;;;6.07;3.55;;;;;;;28.49;47.74;99392.66;4209807;28;20539;-68
2022/06/29 09:10:23;;;;;;;7.40;3.30;;;;;;;28.76;47.64;99398.72;4210730;28;20239;-68
2022/06/29 09:12:37;;;;;;;3.85;3.42;;;;;;;29.18;46.69;99406.19;4210579;28;20241;-69
2022/06/29 09:14:46;;;;;;;4.47;3.50;;;;;;;28.54;47.93;99410.94;4197089;28;20241;-68
2022/06/29 09:16:55;;;;;;;6.10;3.40;;;;;;;28.40;48.10;99412.72;4195395;28;20864;-68
2022/06/29 09:19:03;;;;;;;4.25;3.40;;;;;;;28.59;48.49;99410.88;4194469;28;20593;-70
2022/06/29 09:21:05;;;;;;;4.68;3.72;;;;;;;29.08;46.72;99398.09;4198547;28;20268;-69
2022/06/29 09:23:10;;;;;;;4.45;3.35;;;;;;;28.95;46.96;99413.31;4180019;28;20211;-69
2022/06/29 09:25:26;;;;;;;5.82;3.90;;;;;;;27.98;49.32;99407.50;4204681;28;20227;-69
2022/06/29 09:27:28;;;;;;;8.02;3.50;;;;;;;28.60;48.28;99401.59;4204516;28;20289;-69
2022/06/29 09:29:41;;;;;;;6.57;3.38;;;;;;;28.02;49.17;99406.94;4204757;28;20237;-69
2022/06/29 09:32:01;;;;;;;6.50;3.67;;;;;;;28.91;47.92;99404.03;4206726;28;20659;-69
2022/06/29 09:34:19;;;;;;;6.50;3.75;;;;;;;28.56;48.38;99397.78;4205183;28;20198;-69
2022/06/29 09:36:21;;;;;;;4.25;3.08;;;;;;;28.27;49.62;99392.31;4204399;28;20215;-69
2022/06/29 09:38:29;;;;;;;4.05;3.15;;;;;;;28.43;48.16;99399.28;4204402;28;20201;-69
2022/06/29 09:40:31;;;;;;;5.20;3.17;;;;;;;28.99;47.98;99391.66;4194741;28;20234;-69
2022/06/29 09:42:40;;;;;;;5.13;3.55;;;;;;;28.45;47.86;99396.28;4193297;28;20207;-69
2022/06/29 09:44:42;;;;;;;6.63;3.47;;;;;;;27.90;49.09;99410.03;4196684;28;20272;-70
2022/06/29 09:46:44;;;;;;;4.60;3.53;;;;;;;29.11;46.74;99390.13;4193804;28;20207;-70
2022/06/29 09:48:53;;;;;;;3.25;2.90;;;;;;;28.78;47.12;99402.00;4201440;28;20718;-70
2022/06/29 09:50:55;;;;;;;4.57;3.28;;;;;;;29.18;45.83;99395.25;4209061;28;20259;-70
2022/06/29 09:52:57;;;;;;;5.90;3.00;;;;;;;29.41;45.95;99398.28;4210649;28;20207;-70
2022/06/29 09:55:06;;;;;;;4.78;3.55;;;;;;;28.89;46.56;99398.06;4209921;28;20281;-69
2022/06/29 09:57:08;;;;;;;3.58;3.00;;;;;;;29.08;46.65;99395.38;4197562;28;20252;-69
2022/06/29 09:59:13;;;;;;;4.75;3.30;;;;;;;28.80;46.85;99403.34;4195742;28;20710;-69
2022/06/29 10:03:44;;;;;;;3.75;2.90;;;;;;;29.39;44.05;99412.28;4209690;28;20227;-70
2022/06/29 10:05:57;;;;;;;4.70;3.30;;;;;;;29.18;44.94;99394.44;4209160;28;20280;-70
2022/06/29 10:08:05;;;;;;;4.35;2.63;;;;;;;29.09;44.36;99414.25;4193386;28;20204;-70
2022/06/29 10:10:09;;;;;;;3.83;3.42;;;;;;;29.29;44.19;99393.25;4192673;28;20248;-70
2022/06/29 10:15:33;;;;;;;11.05;4.35;;;;;;;29.86;43.34;99378.78;4200372;28;20226;-69
2022/06/29 10:18:08;;;;;;;5.22;2.97;;;;;;;29.04;45.03;99383.38;4210027;28;20264;-69
2022/06/29 10:20:46;;;;;;;6.20;3.95;;;;;;;29.21;44.04;99374.72;4209357;28;20206;-70
2022/06/29 10:22:47;;;;;;;5.90;4.18;;;;;;;28.27;45.71;99382.19;4209864;28;20214;-70
2022/06/29 10:25:04;;;;;;;6.40;3.70;;;;;;;28.67;46.18;99374.72;4209206;28;20230;-69
2022/06/29 10:27:13;;;;;;;5.90;3.10;;;;;;;28.43;46.86;99371.94;4209477;28;20248;-69
2022/06/29 10:29:35;;;;;;;4.32;3.15;;;;;;;28.84;45.26;99377.03;4190613;28;20227;-69
2022/06/29 10:31:56;;;;;;;4.97;3.47;;;;;;;29.18;43.96;99367.88;4200988;28;20659;-69
2022/06/29 10:34:28;;;;;;;4.68;3.17;;;;;;;28.86;44.92;99380.28;4196696;28;20363;-69
2022/06/29 10:37:10;;;;;;;4.47;3.30;;;;;;;29.65;43.68;99352.47;4192330;28;20219;-69
2022/06/29 10:39:18;;;;;;;3.63;3.10;;;;;;;29.56;43.61;99375.38;4193367;28;20207;-69
2022/06/29 10:43:50;;;;;;;3.35;2.95;;;;;;;29.70;43.72;99359.00;4203027;28;20214;-69
2022/06/29 10:45:58;;;;;;;4.43;3.10;;;;;;;29.64;43.41;99366.47;4192164;28;20261;-70
2022/06/29 10:48:05;;;;;;;5.07;3.40;;;;;;;29.56;43.49;99372.63;4194631;28;20241;-69
2022/06/29 10:50:23;;;;;;;3.13;2.85;;;;;;;30.49;42.60;99367.34;4208896;28;20267;-69
2022/06/29 10:52:33;;;;;;;4.15;3.17;;;;;;;30.08;42.21;99370.78;4209043;28;20207;-69
2022/06/29 10:54:34;;;;;;;4.72;2.97;;;;;;;30.11;42.92;99386.59;4190782;28;20265;-69
2022/06/29 10:56:36;;;;;;;4.13;3.05;;;;;;;30.11;42.65;99370.16;4199201;28;20238;-69
2022/06/29 10:58:44;;;;;;;4.57;2.83;;;;;;;30.75;41.52;99378.72;4209650;28;20263;-69
2022/06/29 11:03:26;;;;;;;3.88;3.03;;;;;;;30.02;42.99;99331.66;4097906;28;20589;-68
2022/06/29 11:05:33;;;;;;;5.40;3.15;;;;;;;29.35;43.90;99336.47;4103709;28;20226;-71
2022/06/29 11:12:23;;;;;;;4.50;3.08;;;;;;;29.75;43.83;99346.06;4114726;28;20660;-70
2022/06/29 11:16:45;;;;;;;6.80;3.30;;;;;;;27.53;47.69;99313.81;4105165;28;20235;-69
2022/06/29 11:18:54;;;;;;;3.67;3.15;;;;;;;29.69;44.27;99308.03;4112134;28;20289;-68
2022/06/29 11:21:04;;;;;;;4.28;2.83;;;;;;;30.09;43.81;99320.28;4102516;28;20872;-68